sensor_id;sensor_type;location;lat;lon;timestamp;temperature;humidity
81524;DHT22;70954;49.500;10.416;2024-01-27T00:02:12;5.90;64.80
81524;DHT22;70954;49.500;10.416;2024-01-27T00:04:37;5.90;64.80
81524;DHT22;70954;49.500;10.416;2024-01-27T00:07:03;5.90;64.90
81524;DHT22;70954;49.500;10.416;2024-01-27T00:09:28;5.80;65.00
81524;DHT22;70954;49.500;10.416;2024-01-27T00:11:53;5.80;65.10
81524;DHT22;70954;49.500;10.416;2024-01-27T00:14:19;5.80;65.10
81524;DHT22;70954;49.500;10.416;2024-01-27T00:16:44;5.80;65.20
81524;DHT22;70954;49.500;10.416;2024-01-27T00:19:10;5.70;65.10
81524;DHT22;70954;49.500;10.416;2024-01-27T00:21:35;5.70;65.00
81524;DHT22;70954;49.500;10.416;2024-01-27T00:24:01;5.70;65.10
81524;DHT22;70954;49.500;10.416;2024-01-27T00:26:27;5.70;65.10
81524;DHT22;70954;49.500;10.416;2024-01-27T00:28:52;5.70;65.00
81524;DHT22;70954;49.500;10.416;2024-01-27T00:31:17;5.60;65.00
81524;DHT22;70954;49.500;10.416;2024-01-27T00:33:43;5.60;65.00
81524;DHT22;70954;49.500;10.416;2024-01-27T00:36:08;5.60;65.00
81524;DHT22;70954;49.500;10.416;2024-01-27T00:38:34;5.50;65.00
81524;DHT22;70954;49.500;10.416;2024-01-27T00:40:59;5.50;65.00
81524;DHT22;70954;49.500;10.416;2024-01-27T00:43:25;5.50;65.00
81524;DHT22;70954;49.500;10.416;2024-01-27T00:45:50;5.50;64.90
81524;DHT22;70954;49.500;10.416;2024-01-27T00:48:15;5.40;65.00
81524;DHT22;70954;49.500;10.416;2024-01-27T00:50:41;5.40;65.00
81524;DHT22;70954;49.500;10.416;2024-01-27T00:53:06;5.30;65.00
81524;DHT22;70954;49.500;10.416;2024-01-27T00:55:32;5.30;65.00
81524;DHT22;70954;49.500;10.416;2024-01-27T00:57:57;5.30;65.10
81524;DHT22;70954;49.500;10.416;2024-01-27T01:00:23;5.30;65.10
81524;DHT22;70954;49.500;10.416;2024-01-27T01:02:48;5.20;65.10
81524;DHT22;70954;49.500;10.416;2024-01-27T01:05:14;5.10;65.10
81524;DHT22;70954;49.500;10.416;2024-01-27T01:07:39;5.10;65.20
81524;DHT22;70954;49.500;10.416;2024-01-27T01:10:05;5.10;65.10
81524;DHT22;70954;49.500;10.416;2024-01-27T01:12:31;5.00;65.20
81524;DHT22;70954;49.500;10.416;2024-01-27T01:14:56;5.00;65.20
81524;DHT22;70954;49.500;10.416;2024-01-27T01:17:22;5.00;65.30
81524;DHT22;70954;49.500;10.416;2024-01-27T01:19:47;5.00;65.30
81524;DHT22;70954;49.500;10.416;2024-01-27T01:22:13;5.00;65.30
81524;DHT22;70954;49.500;10.416;2024-01-27T01:24:38;4.90;65.40
81524;DHT22;70954;49.500;10.416;2024-01-27T01:27:04;4.90;65.30
81524;DHT22;70954;49.500;10.416;2024-01-27T01:29:29;4.90;65.40
81524;DHT22;70954;49.500;10.416;2024-01-27T01:31:55;4.70;65.40
81524;DHT22;70954;49.500;10.416;2024-01-27T01:34:20;4.70;65.40
81524;DHT22;70954;49.500;10.416;2024-01-27T01:36:45;4.70;65.40
81524;DHT22;70954;49.500;10.416;2024-01-27T01:39:11;4.70;65.50
81524;DHT22;70954;49.500;10.416;2024-01-27T01:41:37;4.70;65.50
81524;DHT22;70954;49.500;10.416;2024-01-27T01:44:02;4.60;65.60
81524;DHT22;70954;49.500;10.416;2024-01-27T01:46:28;4.50;65.60
81524;DHT22;70954;49.500;10.416;2024-01-27T01:48:53;4.50;65.60
81524;DHT22;70954;49.500;10.416;2024-01-27T01:51:19;4.50;65.60
81524;DHT22;70954;49.500;10.416;2024-01-27T01:53:48;4.50;65.60
81524;DHT22;70954;49.500;10.416;2024-01-27T01:56:17;4.50;65.60
81524;DHT22;70954;49.500;10.416;2024-01-27T01:58:43;4.40;65.60
81524;DHT22;70954;49.500;10.416;2024-01-27T02:01:09;4.40;65.70
81524;DHT22;70954;49.500;10.416;2024-01-27T02:03:34;4.30;65.60
81524;DHT22;70954;49.500;10.416;2024-01-27T02:06:00;4.30;65.70
81524;DHT22;70954;49.500;10.416;2024-01-27T02:08:25;4.20;65.70
81524;DHT22;70954;49.500;10.416;2024-01-27T02:10:51;4.20;65.80
81524;DHT22;70954;49.500;10.416;2024-01-27T02:13:21;4.20;65.80
81524;DHT22;70954;49.500;10.416;2024-01-27T02:15:47;4.20;65.90
81524;DHT22;70954;49.500;10.416;2024-01-27T02:18:13;4.10;66.00
81524;DHT22;70954;49.500;10.416;2024-01-27T02:20:39;4.10;66.10
81524;DHT22;70954;49.500;10.416;2024-01-27T02:23:05;4.00;66.20
81524;DHT22;70954;49.500;10.416;2024-01-27T02:25:31;4.00;66.20
81524;DHT22;70954;49.500;10.416;2024-01-27T02:27:57;3.90;66.30
81524;DHT22;70954;49.500;10.416;2024-01-27T02:30:22;3.90;66.40
81524;DHT22;70954;49.500;10.416;2024-01-27T02:32:48;3.90;66.50
81524;DHT22;70954;49.500;10.416;2024-01-27T02:35:13;3.90;66.50
81524;DHT22;70954;49.500;10.416;2024-01-27T02:37:39;3.90;66.50
81524;DHT22;70954;49.500;10.416;2024-01-27T02:40:05;3.90;66.50
81524;DHT22;70954;49.500;10.416;2024-01-27T02:42:30;3.80;66.60
81524;DHT22;70954;49.500;10.416;2024-01-27T02:44:56;3.70;66.60
81524;DHT22;70954;49.500;10.416;2024-01-27T02:47:21;3.70;66.70
81524;DHT22;70954;49.500;10.416;2024-01-27T02:49:46;3.70;66.70
81524;DHT22;70954;49.500;10.416;2024-01-27T02:52:12;3.70;66.70
81524;DHT22;70954;49.500;10.416;2024-01-27T02:54:37;3.70;66.70
81524;DHT22;70954;49.500;10.416;2024-01-27T02:57:03;3.60;66.80
81524;DHT22;70954;49.500;10.416;2024-01-27T02:59:29;3.60;66.80
81524;DHT22;70954;49.500;10.416;2024-01-27T03:01:54;3.60;66.80
81524;DHT22;70954;49.500;10.416;2024-01-27T03:04:19;3.60;66.90
81524;DHT22;70954;49.500;10.416;2024-01-27T03:06:45;3.60;66.90
81524;DHT22;70954;49.500;10.416;2024-01-27T03:09:10;3.60;66.90
81524;DHT22;70954;49.500;10.416;2024-01-27T03:11:36;3.50;66.90
81524;DHT22;70954;49.500;10.416;2024-01-27T03:14:01;3.50;66.90
81524;DHT22;70954;49.500;10.416;2024-01-27T03:16:27;3.50;66.90
81524;DHT22;70954;49.500;10.416;2024-01-27T03:18:52;3.50;66.90
81524;DHT22;70954;49.500;10.416;2024-01-27T03:21:18;3.50;66.90
81524;DHT22;70954;49.500;10.416;2024-01-27T03:23:43;3.50;67.00
81524;DHT22;70954;49.500;10.416;2024-01-27T03:26:08;3.40;67.10
81524;DHT22;70954;49.500;10.416;2024-01-27T03:28:34;3.40;67.10
81524;DHT22;70954;49.500;10.416;2024-01-27T03:30:59;3.40;67.20
81524;DHT22;70954;49.500;10.416;2024-01-27T03:33:25;3.30;67.30
81524;DHT22;70954;49.500;10.416;2024-01-27T03:35:51;3.30;67.40
81524;DHT22;70954;49.500;10.416;2024-01-27T03:38:16;3.30;67.50
81524;DHT22;70954;49.500;10.416;2024-01-27T03:40:42;3.30;67.50
81524;DHT22;70954;49.500;10.416;2024-01-27T03:43:07;3.30;67.60
81524;DHT22;70954;49.500;10.416;2024-01-27T03:45:32;3.30;67.60
81524;DHT22;70954;49.500;10.416;2024-01-27T03:47:58;3.30;67.70
81524;DHT22;70954;49.500;10.416;2024-01-27T03:50:23;3.20;67.60
81524;DHT22;70954;49.500;10.416;2024-01-27T03:52:49;3.20;67.60
81524;DHT22;70954;49.500;10.416;2024-01-27T03:55:14;3.30;67.60
81524;DHT22;70954;49.500;10.416;2024-01-27T03:57:40;3.30;67.60
81524;DHT22;70954;49.500;10.416;2024-01-27T04:00:06;3.30;67.60
81524;DHT22;70954;49.500;10.416;2024-01-27T04:02:31;3.30;67.50
81524;DHT22;70954;49.500;10.416;2024-01-27T04:04:57;3.30;67.50
81524;DHT22;70954;49.500;10.416;2024-01-27T04:07:22;3.20;67.40
81524;DHT22;70954;49.500;10.416;2024-01-27T04:09:48;3.20;67.30
81524;DHT22;70954;49.500;10.416;2024-01-27T04:12:13;3.20;67.30
81524;DHT22;70954;49.500;10.416;2024-01-27T04:14:39;3.10;67.30
81524;DHT22;70954;49.500;10.416;2024-01-27T04:17:04;3.20;67.20
81524;DHT22;70954;49.500;10.416;2024-01-27T04:19:29;3.10;67.20
81524;DHT22;70954;49.500;10.416;2024-01-27T04:21:55;3.10;67.10
81524;DHT22;70954;49.500;10.416;2024-01-27T04:24:20;3.10;67.10
81524;DHT22;70954;49.500;10.416;2024-01-27T04:26:46;3.10;67.10
81524;DHT22;70954;49.500;10.416;2024-01-27T04:29:11;3.10;67.10
81524;DHT22;70954;49.500;10.416;2024-01-27T04:31:39;3.00;67.20
81524;DHT22;70954;49.500;10.416;2024-01-27T04:34:05;3.00;67.10
81524;DHT22;70954;49.500;10.416;2024-01-27T04:36:30;3.00;67.10
81524;DHT22;70954;49.500;10.416;2024-01-27T04:38:56;3.00;67.20
81524;DHT22;70954;49.500;10.416;2024-01-27T04:41:21;2.90;67.20
81524;DHT22;70954;49.500;10.416;2024-01-27T04:43:47;2.90;67.30
81524;DHT22;70954;49.500;10.416;2024-01-27T04:46:12;2.90;67.30
81524;DHT22;70954;49.500;10.416;2024-01-27T04:48:38;2.90;67.30
81524;DHT22;70954;49.500;10.416;2024-01-27T04:51:03;2.80;67.40
81524;DHT22;70954;49.500;10.416;2024-01-27T04:53:29;2.80;67.50
81524;DHT22;70954;49.500;10.416;2024-01-27T04:55:54;2.80;67.50
81524;DHT22;70954;49.500;10.416;2024-01-27T04:58:20;2.80;67.70
81524;DHT22;70954;49.500;10.416;2024-01-27T05:00:45;2.70;67.80
81524;DHT22;70954;49.500;10.416;2024-01-27T05:03:10;2.70;67.90
81524;DHT22;70954;49.500;10.416;2024-01-27T05:05:36;2.70;68.00
81524;DHT22;70954;49.500;10.416;2024-01-27T05:08:01;2.70;68.00
81524;DHT22;70954;49.500;10.416;2024-01-27T05:10:27;2.70;68.20
81524;DHT22;70954;49.500;10.416;2024-01-27T05:12:52;2.70;68.20
81524;DHT22;70954;49.500;10.416;2024-01-27T05:15:18;2.60;68.30
81524;DHT22;70954;49.500;10.416;2024-01-27T05:17:43;2.60;68.40
81524;DHT22;70954;49.500;10.416;2024-01-27T05:20:09;2.60;68.40
81524;DHT22;70954;49.500;10.416;2024-01-27T05:22:34;2.60;68.40
81524;DHT22;70954;49.500;10.416;2024-01-27T05:25:00;2.60;68.40
81524;DHT22;70954;49.500;10.416;2024-01-27T05:27:25;2.50;68.50
81524;DHT22;70954;49.500;10.416;2024-01-27T05:29:51;2.50;68.60
81524;DHT22;70954;49.500;10.416;2024-01-27T05:32:16;2.50;68.60
81524;DHT22;70954;49.500;10.416;2024-01-27T05:34:42;2.50;68.60
81524;DHT22;70954;49.500;10.416;2024-01-27T05:37:07;2.50;68.70
81524;DHT22;70954;49.500;10.416;2024-01-27T05:39:33;2.50;68.60
81524;DHT22;70954;49.500;10.416;2024-01-27T05:41:58;2.50;68.70
81524;DHT22;70954;49.500;10.416;2024-01-27T05:44:24;2.50;68.80
81524;DHT22;70954;49.500;10.416;2024-01-27T05:46:49;2.50;68.90
81524;DHT22;70954;49.500;10.416;2024-01-27T05:49:14;2.50;69.00
81524;DHT22;70954;49.500;10.416;2024-01-27T05:51:40;2.50;69.00
81524;DHT22;70954;49.500;10.416;2024-01-27T05:54:05;2.50;69.10
81524;DHT22;70954;49.500;10.416;2024-01-27T05:56:31;2.50;69.20
81524;DHT22;70954;49.500;10.416;2024-01-27T05:58:56;2.50;69.20
81524;DHT22;70954;49.500;10.416;2024-01-27T06:01:22;2.50;69.30
81524;DHT22;70954;49.500;10.416;2024-01-27T06:03:47;2.50;69.30
81524;DHT22;70954;49.500;10.416;2024-01-27T06:06:12;2.50;69.20
81524;DHT22;70954;49.500;10.416;2024-01-27T06:08:38;2.40;69.30
81524;DHT22;70954;49.500;10.416;2024-01-27T06:11:03;2.50;69.30
81524;DHT22;70954;49.500;10.416;2024-01-27T06:13:29;2.50;69.30
81524;DHT22;70954;49.500;10.416;2024-01-27T06:15:55;2.50;69.30
81524;DHT22;70954;49.500;10.416;2024-01-27T06:18:20;2.40;69.30
81524;DHT22;70954;49.500;10.416;2024-01-27T06:20:46;2.40;69.20
81524;DHT22;70954;49.500;10.416;2024-01-27T06:23:12;2.40;69.20
81524;DHT22;70954;49.500;10.416;2024-01-27T06:25:37;2.40;69.20
81524;DHT22;70954;49.500;10.416;2024-01-27T06:28:03;2.40;69.10
81524;DHT22;70954;49.500;10.416;2024-01-27T06:30:28;2.40;69.10
81524;DHT22;70954;49.500;10.416;2024-01-27T06:32:54;2.40;69.20
81524;DHT22;70954;49.500;10.416;2024-01-27T06:35:19;2.40;69.20
81524;DHT22;70954;49.500;10.416;2024-01-27T06:37:45;2.40;69.30
81524;DHT22;70954;49.500;10.416;2024-01-27T06:40:11;2.40;69.30
81524;DHT22;70954;49.500;10.416;2024-01-27T06:42:36;2.40;69.20
81524;DHT22;70954;49.500;10.416;2024-01-27T06:45:02;2.40;69.20
81524;DHT22;70954;49.500;10.416;2024-01-27T06:47:27;2.40;69.20
81524;DHT22;70954;49.500;10.416;2024-01-27T06:49:53;2.40;69.20
81524;DHT22;70954;49.500;10.416;2024-01-27T06:52:18;2.40;69.20
81524;DHT22;70954;49.500;10.416;2024-01-27T06:54:44;2.30;69.20
81524;DHT22;70954;49.500;10.416;2024-01-27T06:57:22;2.40;69.20
81524;DHT22;70954;49.500;10.416;2024-01-27T06:59:49;2.30;69.20
81524;DHT22;70954;49.500;10.416;2024-01-27T07:02:15;2.30;69.20
81524;DHT22;70954;49.500;10.416;2024-01-27T07:04:40;2.40;69.10
81524;DHT22;70954;49.500;10.416;2024-01-27T07:07:05;2.40;69.00
81524;DHT22;70954;49.500;10.416;2024-01-27T07:09:31;2.30;69.10
81524;DHT22;70954;49.500;10.416;2024-01-27T07:11:56;2.30;69.10
81524;DHT22;70954;49.500;10.416;2024-01-27T07:14:22;2.30;69.10
81524;DHT22;70954;49.500;10.416;2024-01-27T07:16:47;2.30;69.20
81524;DHT22;70954;49.500;10.416;2024-01-27T07:19:13;2.30;69.10
81524;DHT22;70954;49.500;10.416;2024-01-27T07:21:38;2.30;69.20
81524;DHT22;70954;49.500;10.416;2024-01-27T07:24:04;2.30;69.20
81524;DHT22;70954;49.500;10.416;2024-01-27T07:26:29;2.20;69.30
81524;DHT22;70954;49.500;10.416;2024-01-27T07:28:55;2.20;69.30
81524;DHT22;70954;49.500;10.416;2024-01-27T07:31:21;2.20;69.40
81524;DHT22;70954;49.500;10.416;2024-01-27T07:33:46;2.20;69.60
81524;DHT22;70954;49.500;10.416;2024-01-27T07:36:11;2.20;69.50
81524;DHT22;70954;49.500;10.416;2024-01-27T07:38:37;2.20;69.70
81524;DHT22;70954;49.500;10.416;2024-01-27T07:41:02;2.20;69.90
81524;DHT22;70954;49.500;10.416;2024-01-27T07:43:28;2.20;70.00
81524;DHT22;70954;49.500;10.416;2024-01-27T07:45:53;2.20;70.10
81524;DHT22;70954;49.500;10.416;2024-01-27T07:48:19;2.20;70.50
81524;DHT22;70954;49.500;10.416;2024-01-27T07:50:44;2.20;70.40
81524;DHT22;70954;49.500;10.416;2024-01-27T07:53:10;2.20;70.50
81524;DHT22;70954;49.500;10.416;2024-01-27T07:55:35;2.20;70.70
81524;DHT22;70954;49.500;10.416;2024-01-27T07:58:00;2.20;70.60
81524;DHT22;70954;49.500;10.416;2024-01-27T08:00:26;2.30;70.50
81524;DHT22;70954;49.500;10.416;2024-01-27T08:02:51;2.30;70.50
81524;DHT22;70954;49.500;10.416;2024-01-27T08:05:17;2.30;70.60
81524;DHT22;70954;49.500;10.416;2024-01-27T08:07:42;2.40;70.60
81524;DHT22;70954;49.500;10.416;2024-01-27T08:10:08;2.40;70.50
81524;DHT22;70954;49.500;10.416;2024-01-27T08:12:33;2.40;70.50
81524;DHT22;70954;49.500;10.416;2024-01-27T08:14:59;2.50;70.50
81524;DHT22;70954;49.500;10.416;2024-01-27T08:17:24;2.50;70.50
81524;DHT22;70954;49.500;10.416;2024-01-27T08:19:50;2.50;70.50
81524;DHT22;70954;49.500;10.416;2024-01-27T08:22:15;2.50;70.60
81524;DHT22;70954;49.500;10.416;2024-01-27T08:24:41;2.60;70.60
81524;DHT22;70954;49.500;10.416;2024-01-27T08:27:06;2.70;70.50
81524;DHT22;70954;49.500;10.416;2024-01-27T08:29:32;2.70;70.50
81524;DHT22;70954;49.500;10.416;2024-01-27T08:31:57;2.80;70.50
81524;DHT22;70954;49.500;10.416;2024-01-27T08:34:22;2.90;70.50
81524;DHT22;70954;49.500;10.416;2024-01-27T08:36:48;2.90;70.70
81524;DHT22;70954;49.500;10.416;2024-01-27T08:39:13;2.90;70.60
81524;DHT22;70954;49.500;10.416;2024-01-27T08:41:39;3.00;70.60
81524;DHT22;70954;49.500;10.416;2024-01-27T08:44:04;3.10;70.60
81524;DHT22;70954;49.500;10.416;2024-01-27T08:46:30;3.10;70.60
81524;DHT22;70954;49.500;10.416;2024-01-27T08:48:55;3.10;70.60
81524;DHT22;70954;49.500;10.416;2024-01-27T08:51:21;3.20;70.60
81524;DHT22;70954;49.500;10.416;2024-01-27T08:53:46;3.30;70.50
81524;DHT22;70954;49.500;10.416;2024-01-27T08:56:12;3.30;70.50
81524;DHT22;70954;49.500;10.416;2024-01-27T08:58:37;3.30;70.50
81524;DHT22;70954;49.500;10.416;2024-01-27T09:01:03;3.50;70.50
81524;DHT22;70954;49.500;10.416;2024-01-27T09:03:28;3.50;70.50
81524;DHT22;70954;49.500;10.416;2024-01-27T09:05:53;3.50;70.40
81524;DHT22;70954;49.500;10.416;2024-01-27T09:08:19;3.60;70.40
81524;DHT22;70954;49.500;10.416;2024-01-27T09:10:44;3.60;70.30
81524;DHT22;70954;49.500;10.416;2024-01-27T09:13:10;3.70;70.20
81524;DHT22;70954;49.500;10.416;2024-01-27T09:15:35;3.70;70.20
81524;DHT22;70954;49.500;10.416;2024-01-27T09:18:01;3.90;70.10
81524;DHT22;70954;49.500;10.416;2024-01-27T09:20:26;3.90;69.90
81524;DHT22;70954;49.500;10.416;2024-01-27T09:22:51;3.90;70.00
81524;DHT22;70954;49.500;10.416;2024-01-27T09:25:17;4.00;70.00
81524;DHT22;70954;49.500;10.416;2024-01-27T09:27:43;4.00;70.00
81524;DHT22;70954;49.500;10.416;2024-01-27T09:30:08;4.10;70.00
81524;DHT22;70954;49.500;10.416;2024-01-27T09:32:34;4.20;69.90
81524;DHT22;70954;49.500;10.416;2024-01-27T09:34:59;4.20;69.60
81524;DHT22;70954;49.500;10.416;2024-01-27T09:37:25;4.30;69.60
81524;DHT22;70954;49.500;10.416;2024-01-27T09:39:50;4.30;69.50
81524;DHT22;70954;49.500;10.416;2024-01-27T09:42:19;4.40;69.60
81524;DHT22;70954;49.500;10.416;2024-01-27T09:44:48;4.50;69.40
81524;DHT22;70954;49.500;10.416;2024-01-27T09:47:14;4.50;69.30
81524;DHT22;70954;49.500;10.416;2024-01-27T09:49:40;4.50;69.00
81524;DHT22;70954;49.500;10.416;2024-01-27T09:52:05;4.60;69.00
81524;DHT22;70954;49.500;10.416;2024-01-27T09:54:31;4.70;69.10
81524;DHT22;70954;49.500;10.416;2024-01-27T09:56:57;4.70;69.10
81524;DHT22;70954;49.500;10.416;2024-01-27T09:59:23;4.80;69.00
81524;DHT22;70954;49.500;10.416;2024-01-27T10:01:50;4.90;69.00
81524;DHT22;70954;49.500;10.416;2024-01-27T10:04:16;4.90;69.00
81524;DHT22;70954;49.500;10.416;2024-01-27T10:06:44;5.00;68.70
81524;DHT22;70954;49.500;10.416;2024-01-27T10:09:09;5.00;68.70
81524;DHT22;70954;49.500;10.416;2024-01-27T10:11:36;5.10;68.80
81524;DHT22;70954;49.500;10.416;2024-01-27T10:14:03;5.20;68.60
81524;DHT22;70954;49.500;10.416;2024-01-27T10:16:45;5.30;68.40
81524;DHT22;70954;49.500;10.416;2024-01-27T10:19:19;5.30;67.90
81524;DHT22;70954;49.500;10.416;2024-01-27T10:21:45;5.30;68.00
81524;DHT22;70954;49.500;10.416;2024-01-27T10:24:11;5.30;68.10
81524;DHT22;70954;49.500;10.416;2024-01-27T10:26:36;5.50;68.00
81524;DHT22;70954;49.500;10.416;2024-01-27T10:29:02;5.50;67.50
81524;DHT22;70954;49.500;10.416;2024-01-27T10:31:28;5.50;67.00
81524;DHT22;70954;49.500;10.416;2024-01-27T10:33:56;5.50;67.10
81524;DHT22;70954;49.500;10.416;2024-01-27T10:36:26;5.50;67.20
81524;DHT22;70954;49.500;10.416;2024-01-27T10:38:51;5.60;67.20
81524;DHT22;70954;49.500;10.416;2024-01-27T10:41:22;5.60;67.10
81524;DHT22;70954;49.500;10.416;2024-01-27T10:43:50;5.60;66.80
81524;DHT22;70954;49.500;10.416;2024-01-27T10:46:18;5.60;67.10
81524;DHT22;70954;49.500;10.416;2024-01-27T10:48:47;5.70;66.80
81524;DHT22;70954;49.500;10.416;2024-01-27T10:51:16;5.70;66.70
81524;DHT22;70954;49.500;10.416;2024-01-27T10:53:47;5.80;66.70
81524;DHT22;70954;49.500;10.416;2024-01-27T10:56:14;5.80;66.60
81524;DHT22;70954;49.500;10.416;2024-01-27T10:58:40;5.80;66.80
81524;DHT22;70954;49.500;10.416;2024-01-27T11:01:11;5.80;67.00
81524;DHT22;70954;49.500;10.416;2024-01-27T11:03:38;5.90;66.50
81524;DHT22;70954;49.500;10.416;2024-01-27T11:06:05;5.90;66.60
81524;DHT22;70954;49.500;10.416;2024-01-27T11:08:31;6.00;66.30
81524;DHT22;70954;49.500;10.416;2024-01-27T11:10:58;6.00;66.50
81524;DHT22;70954;49.500;10.416;2024-01-27T11:13:25;6.10;66.30
81524;DHT22;70954;49.500;10.416;2024-01-27T11:15:53;6.10;65.90
81524;DHT22;70954;49.500;10.416;2024-01-27T11:18:19;6.20;66.10
81524;DHT22;70954;49.500;10.416;2024-01-27T11:20:45;6.20;65.60
81524;DHT22;70954;49.500;10.416;2024-01-27T11:23:13;6.20;65.10
81524;DHT22;70954;49.500;10.416;2024-01-27T11:25:39;6.30;65.50
81524;DHT22;70954;49.500;10.416;2024-01-27T11:28:16;6.40;65.30
81524;DHT22;70954;49.500;10.416;2024-01-27T11:30:46;6.40;64.80
81524;DHT22;70954;49.500;10.416;2024-01-27T11:33:12;6.40;64.70
81524;DHT22;70954;49.500;10.416;2024-01-27T11:35:38;6.50;64.80
81524;DHT22;70954;49.500;10.416;2024-01-27T11:38:03;6.50;64.70
81524;DHT22;70954;49.500;10.416;2024-01-27T11:40:29;6.60;64.80
81524;DHT22;70954;49.500;10.416;2024-01-27T11:43:01;6.60;64.70
81524;DHT22;70954;49.500;10.416;2024-01-27T11:45:27;6.60;64.50
81524;DHT22;70954;49.500;10.416;2024-01-27T11:47:53;6.70;64.30
81524;DHT22;70954;49.500;10.416;2024-01-27T11:50:19;6.70;64.50
81524;DHT22;70954;49.500;10.416;2024-01-27T11:52:45;6.70;64.50
81524;DHT22;70954;49.500;10.416;2024-01-27T11:55:10;6.80;64.10
81524;DHT22;70954;49.500;10.416;2024-01-27T11:57:36;6.80;64.20
81524;DHT22;70954;49.500;10.416;2024-01-27T12:00:01;6.90;63.40
81524;DHT22;70954;49.500;10.416;2024-01-27T12:02:27;6.90;63.30
81524;DHT22;70954;49.500;10.416;2024-01-27T12:04:53;6.90;63.30
81524;DHT22;70954;49.500;10.416;2024-01-27T12:07:19;7.00;62.20
81524;DHT22;70954;49.500;10.416;2024-01-27T12:09:45;7.00;63.00
81524;DHT22;70954;49.500;10.416;2024-01-27T12:12:12;7.00;62.40
81524;DHT22;70954;49.500;10.416;2024-01-27T12:14:44;7.00;62.70
81524;DHT22;70954;49.500;10.416;2024-01-27T12:17:10;7.00;62.20
81524;DHT22;70954;49.500;10.416;2024-01-27T12:19:36;7.00;62.10
81524;DHT22;70954;49.500;10.416;2024-01-27T12:22:02;7.00;62.30
81524;DHT22;70954;49.500;10.416;2024-01-27T12:24:28;7.10;61.90
81524;DHT22;70954;49.500;10.416;2024-01-27T12:26:55;7.10;60.50
81524;DHT22;70954;49.500;10.416;2024-01-27T12:29:20;7.10;61.40
81524;DHT22;70954;49.500;10.416;2024-01-27T12:31:46;7.20;61.30
81524;DHT22;70954;49.500;10.416;2024-01-27T12:34:12;7.20;61.10
81524;DHT22;70954;49.500;10.416;2024-01-27T12:36:41;7.20;61.60
81524;DHT22;70954;49.500;10.416;2024-01-27T12:39:08;7.20;61.60
81524;DHT22;70954;49.500;10.416;2024-01-27T12:41:34;7.20;61.90
81524;DHT22;70954;49.500;10.416;2024-01-27T12:43:59;7.20;61.40
81524;DHT22;70954;49.500;10.416;2024-01-27T12:46:25;7.20;61.10
81524;DHT22;70954;49.500;10.416;2024-01-27T12:48:50;7.20;61.40
81524;DHT22;70954;49.500;10.416;2024-01-27T12:51:16;7.20;61.40
81524;DHT22;70954;49.500;10.416;2024-01-27T12:53:42;7.20;61.50
81524;DHT22;70954;49.500;10.416;2024-01-27T12:56:08;7.30;60.70
81524;DHT22;70954;49.500;10.416;2024-01-27T12:58:34;7.20;61.40
81524;DHT22;70954;49.500;10.416;2024-01-27T13:01:00;7.30;61.50
81524;DHT22;70954;49.500;10.416;2024-01-27T13:03:25;7.30;61.20
81524;DHT22;70954;49.500;10.416;2024-01-27T13:05:51;7.40;60.70
81524;DHT22;70954;49.500;10.416;2024-01-27T13:08:16;7.40;60.80
81524;DHT22;70954;49.500;10.416;2024-01-27T13:10:42;7.40;60.70
81524;DHT22;70954;49.500;10.416;2024-01-27T13:13:07;7.40;61.00
81524;DHT22;70954;49.500;10.416;2024-01-27T13:15:33;7.40;61.00
81524;DHT22;70954;49.500;10.416;2024-01-27T13:17:58;7.50;60.80
81524;DHT22;70954;49.500;10.416;2024-01-27T13:20:24;7.50;60.80
81524;DHT22;70954;49.500;10.416;2024-01-27T13:22:49;7.50;60.50
81524;DHT22;70954;49.500;10.416;2024-01-27T13:25:14;7.50;60.70
81524;DHT22;70954;49.500;10.416;2024-01-27T13:27:40;7.50;60.70
81524;DHT22;70954;49.500;10.416;2024-01-27T13:30:07;7.50;60.60
81524;DHT22;70954;49.500;10.416;2024-01-27T13:32:32;7.50;60.50
81524;DHT22;70954;49.500;10.416;2024-01-27T13:34:58;7.50;60.50
81524;DHT22;70954;49.500;10.416;2024-01-27T13:37:23;7.60;60.30
81524;DHT22;70954;49.500;10.416;2024-01-27T13:39:49;7.60;60.40
81524;DHT22;70954;49.500;10.416;2024-01-27T13:42:14;7.60;60.30
81524;DHT22;70954;49.500;10.416;2024-01-27T13:44:40;7.60;60.30
81524;DHT22;70954;49.500;10.416;2024-01-27T13:47:05;7.60;60.20
81524;DHT22;70954;49.500;10.416;2024-01-27T13:49:32;7.70;60.10
81524;DHT22;70954;49.500;10.416;2024-01-27T13:51:58;7.70;59.90
81524;DHT22;70954;49.500;10.416;2024-01-27T13:54:23;7.70;59.70
81524;DHT22;70954;49.500;10.416;2024-01-27T13:56:48;7.70;59.70
81524;DHT22;70954;49.500;10.416;2024-01-27T13:59:14;7.70;59.70
81524;DHT22;70954;49.500;10.416;2024-01-27T14:01:40;7.80;59.60
81524;DHT22;70954;49.500;10.416;2024-01-27T14:04:05;7.80;59.70
81524;DHT22;70954;49.500;10.416;2024-01-27T14:06:30;7.80;59.60
81524;DHT22;70954;49.500;10.416;2024-01-27T14:08:56;7.80;59.60
81524;DHT22;70954;49.500;10.416;2024-01-27T14:11:21;7.80;59.50
81524;DHT22;70954;49.500;10.416;2024-01-27T14:13:47;7.80;59.60
81524;DHT22;70954;49.500;10.416;2024-01-27T14:16:12;7.80;59.00
81524;DHT22;70954;49.500;10.416;2024-01-27T14:18:38;7.80;59.20
81524;DHT22;70954;49.500;10.416;2024-01-27T14:21:03;7.80;59.30
81524;DHT22;70954;49.500;10.416;2024-01-27T14:23:29;7.80;59.30
81524;DHT22;70954;49.500;10.416;2024-01-27T14:25:54;7.80;59.30
81524;DHT22;70954;49.500;10.416;2024-01-27T14:28:20;7.80;59.20
81524;DHT22;70954;49.500;10.416;2024-01-27T14:30:45;7.80;59.20
81524;DHT22;70954;49.500;10.416;2024-01-27T14:33:11;7.80;59.20
81524;DHT22;70954;49.500;10.416;2024-01-27T14:35:37;7.80;59.20
81524;DHT22;70954;49.500;10.416;2024-01-27T14:38:02;7.80;59.10
81524;DHT22;70954;49.500;10.416;2024-01-27T14:40:28;7.80;59.20
81524;DHT22;70954;49.500;10.416;2024-01-27T14:42:53;7.80;59.20
81524;DHT22;70954;49.500;10.416;2024-01-27T14:45:19;7.80;59.20
81524;DHT22;70954;49.500;10.416;2024-01-27T14:47:44;7.80;59.10
81524;DHT22;70954;49.500;10.416;2024-01-27T14:50:10;7.80;59.10
81524;DHT22;70954;49.500;10.416;2024-01-27T14:52:35;7.80;59.10
81524;DHT22;70954;49.500;10.416;2024-01-27T14:55:00;7.80;59.10
81524;DHT22;70954;49.500;10.416;2024-01-27T14:57:26;7.80;59.10
81524;DHT22;70954;49.500;10.416;2024-01-27T14:59:52;7.80;59.00
81524;DHT22;70954;49.500;10.416;2024-01-27T15:02:17;7.80;59.00
81524;DHT22;70954;49.500;10.416;2024-01-27T15:04:42;7.80;59.00
81524;DHT22;70954;49.500;10.416;2024-01-27T15:07:08;7.70;59.00
81524;DHT22;70954;49.500;10.416;2024-01-27T15:09:34;7.70;59.00
81524;DHT22;70954;49.500;10.416;2024-01-27T15:11:59;7.70;58.90
81524;DHT22;70954;49.500;10.416;2024-01-27T15:14:25;7.70;58.90
81524;DHT22;70954;49.500;10.416;2024-01-27T15:16:50;7.60;58.80
81524;DHT22;70954;49.500;10.416;2024-01-27T15:19:16;7.60;58.80
81524;DHT22;70954;49.500;10.416;2024-01-27T15:21:41;7.60;58.80